Stena Atlantica — ZCPR7 — position and weather

sailwx.info

Track history (hours):
 
Tides and Currents Weather Stations Pressure Air Temp Water Temp Dewpoint Dewpoint Depression Visibility Wind Speed Wind Dir Waves Ship Positions

Stena Atlantica

Last reported at 2015-Feb-23 23:13 UTC. Time now 2015-Feb-27 11:38 UTC.
Position N 50°27' W 000°18'.

Length 245 m; draft 14 m.

Type: Tanker. MMSI: 319161000.

Date/timePositionNaut miles runAvg speedWind from/ knotsBaromVisibWave heightAir tempDewpointWater temp
2015-Feb-23 23:13N 50°27' W 000°18'3 4.8
2015-Feb-23 22:33N 50°28' W 000°13'14 7.1
2015-Feb-23 20:33N 50°32' E 000°08'1111.0
2015-Feb-23 19:33N 50°34' E 000°25'1110.8
2015-Feb-23 18:33N 50°39' E 000°40'1010.5
2015-Feb-23 17:33N 50°44' E 000°54'11 9.0
2015-Feb-23 16:17N 50°51' E 001°09'6 8.0
2015-Feb-23 15:31N 50°54' E 001°17'7 7.1
2015-Feb-23 14:33N 50°60' E 001°24'8 8.0
2015-Feb-23 13:33N 51°05' E 001°33'10 9.7
2015-Feb-23 12:33N 51°12' E 001°44'1312.6
2015-Feb-23 11:33N 51°23' E 001°54'1313.2
2015-Feb-23 10:33N 51°33' E 002°07'1312.6
2015-Feb-23 09:33N 51°43' E 002°20'46510.3
2015-Feb-21 12:33N 57°49' E 010°35'10 9.6
2015-Feb-21 11:33N 57°45' E 010°51'1111.1
2015-Feb-21 10:33N 57°38' E 011°07'1111.5
2015-Feb-21 09:33N 57°30' E 011°22'1111.4
2015-Feb-21 08:33N 57°20' E 011°32'1211.7
2015-Feb-21 07:33N 57°09' E 011°38'1211.9
2015-Feb-21 06:33N 56°58' E 011°46'1211.5
2015-Feb-21 05:33N 56°47' E 011°53'1111.4
2015-Feb-21 04:33N 56°36' E 011°44'1111.4
2015-Feb-21 03:33N 56°27' E 011°34'11110.0
2015-Feb-20 16:25N 54°37' E 010°57'910.4
2015-Feb-20 15:33N 54°36' E 011°13'1111.1
2015-Feb-20 14:33N 54°31' E 011°30'1111.4
2015-Feb-20 13:33N 54°27' E 011°48'1111.0
2015-Feb-20 12:33N 54°27' E 012°07'8 7.8
2015-Feb-20 11:33N 54°33' E 012°15'9 8.3
2015-Feb-20 10:29N 54°40' E 012°25'8 8.8
2015-Feb-20 09:33N 54°44' E 012°37'9 8.8
2015-Feb-20 08:33N 54°48' E 012°51'1211.2
2015-Feb-20 07:28N 54°53' E 013°10'1111.8
2015-Feb-20 06:33N 54°56' E 013°28'1211.7
2015-Feb-20 05:33N 55°00' E 013°47'1511.6
2015-Feb-20 04:15N 55°07' E 014°10'811.2
2015-Feb-20 03:33N 55°09' E 014°24'1111.4
2015-Feb-20 02:33N 55°17' E 014°38'8 8.2
2015-Feb-20 01:33N 55°19' E 014°52'1110.5
2015-Feb-20 00:33N 55°23' E 015°09'1010.0
2015-Feb-19 23:33N 55°27' E 015°25'1311.9
2015-Feb-19 22:30N 55°31' E 015°46'9211.4
2015-Feb-19 14:29N 56°10' E 018°14'26212.0
2015-Feb-18 16:33N 59°37' E 023°17'1312.4
2015-Feb-18 15:31N 59°41' E 023°42'1312.3
2015-Feb-18 14:29N 59°44' E 024°06'1112.2
2015-Feb-18 13:33N 59°48' E 024°27'1212.2
2015-Feb-18 12:33N 59°50' E 024°51'3812.1
2015-Feb-18 09:24N 59°57' E 026°06'1212.2
2015-Feb-18 08:24N 60°01' E 026°29'1011.6
2015-Feb-18 07:32N 60°00' E 026°50'  
2015-Feb-14 05:29N 60°01' E 027°15'1112.3
2015-Feb-14 04:33N 59°59' E 026°53'1312.8
2015-Feb-14 03:33N 59°58' E 026°28'1313.1
2015-Feb-14 02:33N 59°54' E 026°02'1713.1
2015-Feb-14 01:14N 59°50' E 025°29'1213.0
2015-Feb-14 00:17N 59°47' E 025°05'1013.0
2015-Feb-13 23:33N 59°45' E 024°47'  
Track history (hours):
 
Tides and Currents Weather Stations Pressure Air Temp Water Temp Dewpoint Dewpoint Depression Visibility Wind Speed Wind Dir Waves Ship Positions

Stena Atlantica

Last reported at 2015-Feb-23 23:13 UTC. Time now 2015-Feb-27 11:38 UTC.
Position N 50°27' W 000°18'.

Length 245 m; draft 14 m.

Type: Tanker. MMSI: 319161000.

Date/timePositionNaut miles runAvg speedWind from/ knotsBaromVisibWave heightAir tempDewpointWater temp
2015-Feb-23 23:13N 50°27' W 000°18'3 4.8
2015-Feb-23 22:33N 50°28' W 000°13'14 7.1
2015-Feb-23 20:33N 50°32' E 000°08'1111.0
2015-Feb-23 19:33N 50°34' E 000°25'1110.8
2015-Feb-23 18:33N 50°39' E 000°40'1010.5
2015-Feb-23 17:33N 50°44' E 000°54'11 9.0
2015-Feb-23 16:17N 50°51' E 001°09'6 8.0
2015-Feb-23 15:31N 50°54' E 001°17'7 7.1
2015-Feb-23 14:33N 50°60' E 001°24'8 8.0
2015-Feb-23 13:33N 51°05' E 001°33'10 9.7
2015-Feb-23 12:33N 51°12' E 001°44'1312.6
2015-Feb-23 11:33N 51°23' E 001°54'1313.2
2015-Feb-23 10:33N 51°33' E 002°07'1312.6
2015-Feb-23 09:33N 51°43' E 002°20'46510.3
2015-Feb-21 12:33N 57°49' E 010°35'10 9.6
2015-Feb-21 11:33N 57°45' E 010°51'1111.1
2015-Feb-21 10:33N 57°38' E 011°07'1111.5
2015-Feb-21 09:33N 57°30' E 011°22'1111.4
2015-Feb-21 08:33N 57°20' E 011°32'1211.7
2015-Feb-21 07:33N 57°09' E 011°38'1211.9
2015-Feb-21 06:33N 56°58' E 011°46'1211.5
2015-Feb-21 05:33N 56°47' E 011°53'1111.4
2015-Feb-21 04:33N 56°36' E 011°44'1111.4
2015-Feb-21 03:33N 56°27' E 011°34'11110.0
2015-Feb-20 16:25N 54°37' E 010°57'910.4
2015-Feb-20 15:33N 54°36' E 011°13'1111.1
2015-Feb-20 14:33N 54°31' E 011°30'1111.4
2015-Feb-20 13:33N 54°27' E 011°48'1111.0
2015-Feb-20 12:33N 54°27' E 012°07'8 7.8
2015-Feb-20 11:33N 54°33' E 012°15'9 8.3
2015-Feb-20 10:29N 54°40' E 012°25'8 8.8
2015-Feb-20 09:33N 54°44' E 012°37'9 8.8
2015-Feb-20 08:33N 54°48' E 012°51'1211.2
2015-Feb-20 07:28N 54°53' E 013°10'1111.8
2015-Feb-20 06:33N 54°56' E 013°28'1211.7
2015-Feb-20 05:33N 55°00' E 013°47'1511.6
2015-Feb-20 04:15N 55°07' E 014°10'811.2
2015-Feb-20 03:33N 55°09' E 014°24'1111.4
2015-Feb-20 02:33N 55°17' E 014°38'8 8.2
2015-Feb-20 01:33N 55°19' E 014°52'1110.5
2015-Feb-20 00:33N 55°23' E 015°09'1010.0
2015-Feb-19 23:33N 55°27' E 015°25'1311.9
2015-Feb-19 22:30N 55°31' E 015°46'9211.4
2015-Feb-19 14:29N 56°10' E 018°14'26212.0
2015-Feb-18 16:33N 59°37' E 023°17'1312.4
2015-Feb-18 15:31N 59°41' E 023°42'1312.3
2015-Feb-18 14:29N 59°44' E 024°06'1112.2
2015-Feb-18 13:33N 59°48' E 024°27'1212.2
2015-Feb-18 12:33N 59°50' E 024°51'3812.1
2015-Feb-18 09:24N 59°57' E 026°06'1212.2
2015-Feb-18 08:24N 60°01' E 026°29'1011.6
2015-Feb-18 07:32N 60°00' E 026°50'  
2015-Feb-14 05:29N 60°01' E 027°15'1112.3
2015-Feb-14 04:33N 59°59' E 026°53'1312.8
2015-Feb-14 03:33N 59°58' E 026°28'1313.1
2015-Feb-14 02:33N 59°54' E 026°02'1713.1
2015-Feb-14 01:14N 59°50' E 025°29'1213.0
2015-Feb-14 00:17N 59°47' E 025°05'1013.0
2015-Feb-13 23:33N 59°45' E 024°47'  

Dump ship's entire track history